首页
METAR-TAF:

METAR-TAF

机场 :

Ozark, 阿拉巴马州, 美国

纬度: 31-17N, 经度: 085-43W, 海拔: 91米

当前天气观测

该预报发布于16分钟前的13:24 UTC
风速6节,风向东转东北
温度 12°C
湿度 94%
气压 1018 hPa
能見度: 2.8公里
阴天层高于200英尺
小毛毛雨, 轻雾

METAR: KOZR 171324Z AUTO 07006KT 1 3/4SM -DZ BR OVC002 12/11 A3007 RMK AO2 DZB24 SLPNO $

时间: 07:40 (13:40 UTC)


TAF: 丢失

超过4000个机场的气象观测和天气预报(METAR&TAF报告)。

可查询的气象台以黄色和红色小点在地图上表示。

将鼠标移到小点上方,可查看气象台名称。

然后点击查看天气观测和预报。

如需切换地图:点击带黑十字的绿色按钮放大地图;点击带横线的绿色按钮缩小地图;或者点击绿色箭头查看邻近地区的地图。


METAR-TAF: